Řízení letového provozu České republiky
Letiste: LKPR Aktualizace: 20.06.2018 07:01:07  UTC
 METAR LKPR 20.06. 07:00 ...
METAR LKPR 200700Z 04005KT 9999 FEW025 21/15 Q1024 NOSIG RMK REG QNH 1020=
 TAF LKPR 20.06. 05:00 ...
TAF LKPR 200500Z 2006/2112 06004KT CAVOK      TEMPO 2008/2011 9999 SCT045      BECMG 2011/2013 12005KT      BECMG 2019/2021 16005KT      BECMG 2106/2108 21008KT      BECMG 2109/2111 25012KT 9999 BKN040      TEMPO 2111/2112 25010G30KT BKN030CB=